sensor_id;sensor_type;location;lat;lon;timestamp;P1;durP1;ratioP1;P2;durP2;ratioP2
10872;SDS011;34586;53.616;10.032;2022-10-22T00:01:56;24.20;;;18.17;;
10872;SDS011;34586;53.616;10.032;2022-10-22T00:04:21;24.53;;;17.47;;
10872;SDS011;34586;53.616;10.032;2022-10-22T00:06:47;23.27;;;17.83;;
10872;SDS011;34586;53.616;10.032;2022-10-22T00:09:13;23.80;;;17.70;;
10872;SDS011;34586;53.616;10.032;2022-10-22T00:11:39;21.47;;;17.03;;
10872;SDS011;34586;53.616;10.032;2022-10-22T00:14:05;25.17;;;18.97;;
10872;SDS011;34586;53.616;10.032;2022-10-22T00:16:31;24.47;;;18.27;;
10872;SDS011;34586;53.616;10.032;2022-10-22T00:18:56;24.17;;;18.50;;
10872;SDS011;34586;53.616;10.032;2022-10-22T00:21:22;19.87;;;16.50;;
10872;SDS011;34586;53.616;10.032;2022-10-22T00:23:47;20.07;;;16.33;;
10872;SDS011;34586;53.616;10.032;2022-10-22T00:26:13;22.67;;;17.00;;
10872;SDS011;34586;53.616;10.032;2022-10-22T00:28:39;22.80;;;17.20;;
10872;SDS011;34586;53.616;10.032;2022-10-22T00:31:04;22.10;;;17.00;;
10872;SDS011;34586;53.616;10.032;2022-10-22T00:33:31;22.30;;;17.97;;
10872;SDS011;34586;53.616;10.032;2022-10-22T00:35:56;23.13;;;18.40;;
10872;SDS011;34586;53.616;10.032;2022-10-22T00:38:22;20.67;;;16.67;;
10872;SDS011;34586;53.616;10.032;2022-10-22T00:40:48;22.47;;;18.80;;
10872;SDS011;34586;53.616;10.032;2022-10-22T00:43:15;21.37;;;17.10;;
10872;SDS011;34586;53.616;10.032;2022-10-22T00:45:42;26.27;;;18.93;;
10872;SDS011;34586;53.616;10.032;2022-10-22T00:48:09;22.87;;;18.10;;
10872;SDS011;34586;53.616;10.032;2022-10-22T00:50:45;21.77;;;17.93;;
10872;SDS011;34586;53.616;10.032;2022-10-22T00:53:22;26.03;;;19.03;;
10872;SDS011;34586;53.616;10.032;2022-10-22T00:55:56;24.57;;;18.30;;
10872;SDS011;34586;53.616;10.032;2022-10-22T00:58:23;24.37;;;17.93;;
10872;SDS011;34586;53.616;10.032;2022-10-22T01:00:51;22.17;;;17.20;;
10872;SDS011;34586;53.616;10.032;2022-10-22T01:03:18;21.43;;;18.43;;
10872;SDS011;34586;53.616;10.032;2022-10-22T01:05:46;25.80;;;19.07;;
10872;SDS011;34586;53.616;10.032;2022-10-22T01:08:21;20.07;;;17.50;;
10872;SDS011;34586;53.616;10.032;2022-10-22T01:13:57;22.43;;;18.10;;
10872;SDS011;34586;53.616;10.032;2022-10-22T01:16:40;19.40;;;16.60;;
10872;SDS011;34586;53.616;10.032;2022-10-22T01:22:12;22.40;;;18.33;;
10872;SDS011;34586;53.616;10.032;2022-10-22T01:24:57;21.80;;;17.97;;
10872;SDS011;34586;53.616;10.032;2022-10-22T01:30:25;21.03;;;17.27;;
10872;SDS011;34586;53.616;10.032;2022-10-22T01:32:53;23.53;;;17.30;;
10872;SDS011;34586;53.616;10.032;2022-10-22T01:35:28;27.87;;;18.63;;
10872;SDS011;34586;53.616;10.032;2022-10-22T01:37:58;22.83;;;17.47;;
10872;SDS011;34586;53.616;10.032;2022-10-22T01:40:27;21.90;;;18.03;;
10872;SDS011;34586;53.616;10.032;2022-10-22T01:43:03;28.77;;;18.47;;
10872;SDS011;34586;53.616;10.032;2022-10-22T01:45:32;24.40;;;17.97;;
10872;SDS011;34586;53.616;10.032;2022-10-22T01:56:03;26.43;;;20.30;;
10872;SDS011;34586;53.616;10.032;2022-10-22T02:01:58;27.73;;;19.70;;
10872;SDS011;34586;53.616;10.032;2022-10-22T02:07:03;33.70;;;22.73;;
10872;SDS011;34586;53.616;10.032;2022-10-22T02:09:31;29.37;;;20.33;;
10872;SDS011;34586;53.616;10.032;2022-10-22T02:12:00;27.50;;;20.90;;
10872;SDS011;34586;53.616;10.032;2022-10-22T02:14:28;28.50;;;20.93;;
10872;SDS011;34586;53.616;10.032;2022-10-22T02:16:55;33.40;;;22.30;;
10872;SDS011;34586;53.616;10.032;2022-10-22T02:19:31;35.47;;;23.30;;
10872;SDS011;34586;53.616;10.032;2022-10-22T02:22:06;28.97;;;21.80;;
10872;SDS011;34586;53.616;10.032;2022-10-22T02:24:32;36.07;;;24.57;;
10872;SDS011;34586;53.616;10.032;2022-10-22T02:29:29;30.90;;;21.03;;
10872;SDS011;34586;53.616;10.032;2022-10-22T02:32:02;28.77;;;21.23;;
10872;SDS011;34586;53.616;10.032;2022-10-22T02:34:31;28.23;;;20.43;;
10872;SDS011;34586;53.616;10.032;2022-10-22T02:36:58;28.73;;;20.87;;
10872;SDS011;34586;53.616;10.032;2022-10-22T02:39:26;24.97;;;18.93;;
10872;SDS011;34586;53.616;10.032;2022-10-22T02:41:52;24.37;;;18.10;;
10872;SDS011;34586;53.616;10.032;2022-10-22T02:44:19;29.33;;;19.53;;
10872;SDS011;34586;53.616;10.032;2022-10-22T02:46:46;23.60;;;18.63;;
10872;SDS011;34586;53.616;10.032;2022-10-22T02:49:12;24.33;;;18.70;;
10872;SDS011;34586;53.616;10.032;2022-10-22T02:51:38;23.87;;;19.00;;
10872;SDS011;34586;53.616;10.032;2022-10-22T02:54:03;26.50;;;19.00;;
10872;SDS011;34586;53.616;10.032;2022-10-22T02:56:29;22.50;;;17.50;;
10872;SDS011;34586;53.616;10.032;2022-10-22T02:58:55;23.43;;;18.53;;
10872;SDS011;34586;53.616;10.032;2022-10-22T03:01:20;26.13;;;19.13;;
10872;SDS011;34586;53.616;10.032;2022-10-22T03:03:46;24.63;;;17.87;;
10872;SDS011;34586;53.616;10.032;2022-10-22T03:06:11;27.17;;;19.10;;
10872;SDS011;34586;53.616;10.032;2022-10-22T03:08:37;21.10;;;17.47;;
10872;SDS011;34586;53.616;10.032;2022-10-22T03:11:02;20.30;;;16.20;;
10872;SDS011;34586;53.616;10.032;2022-10-22T03:13:28;21.80;;;16.83;;
10872;SDS011;34586;53.616;10.032;2022-10-22T03:15:54;18.30;;;15.90;;
10872;SDS011;34586;53.616;10.032;2022-10-22T03:18:19;21.73;;;15.93;;
10872;SDS011;34586;53.616;10.032;2022-10-22T03:20:45;18.83;;;16.13;;
10872;SDS011;34586;53.616;10.032;2022-10-22T03:23:11;20.93;;;15.97;;
10872;SDS011;34586;53.616;10.032;2022-10-22T03:25:40;22.60;;;15.97;;
10872;SDS011;34586;53.616;10.032;2022-10-22T03:28:09;20.33;;;16.17;;
10872;SDS011;34586;53.616;10.032;2022-10-22T03:30:37;19.67;;;16.23;;
10872;SDS011;34586;53.616;10.032;2022-10-22T03:33:03;25.23;;;18.17;;
10872;SDS011;34586;53.616;10.032;2022-10-22T03:35:29;22.90;;;17.23;;
10872;SDS011;34586;53.616;10.032;2022-10-22T03:37:55;22.23;;;16.90;;
10872;SDS011;34586;53.616;10.032;2022-10-22T03:40:25;20.47;;;16.53;;
10872;SDS011;34586;53.616;10.032;2022-10-22T03:42:51;20.80;;;16.63;;
10872;SDS011;34586;53.616;10.032;2022-10-22T03:45:16;20.23;;;16.97;;
10872;SDS011;34586;53.616;10.032;2022-10-22T03:47:42;23.23;;;17.13;;
10872;SDS011;34586;53.616;10.032;2022-10-22T03:50:08;20.27;;;17.03;;
10872;SDS011;34586;53.616;10.032;2022-10-22T03:52:35;26.13;;;18.23;;
10872;SDS011;34586;53.616;10.032;2022-10-22T03:55:02;21.63;;;16.60;;
10872;SDS011;34586;53.616;10.032;2022-10-22T03:57:28;23.27;;;17.10;;
10872;SDS011;34586;53.616;10.032;2022-10-22T03:59:54;19.93;;;15.97;;
10872;SDS011;34586;53.616;10.032;2022-10-22T04:02:20;24.43;;;16.63;;
10872;SDS011;34586;53.616;10.032;2022-10-22T04:04:45;21.33;;;16.67;;
10872;SDS011;34586;53.616;10.032;2022-10-22T04:07:11;22.83;;;17.20;;
10872;SDS011;34586;53.616;10.032;2022-10-22T04:09:37;20.73;;;17.13;;
10872;SDS011;34586;53.616;10.032;2022-10-22T04:12:02;21.97;;;16.77;;
10872;SDS011;34586;53.616;10.032;2022-10-22T04:14:30;21.93;;;16.67;;
10872;SDS011;34586;53.616;10.032;2022-10-22T04:16:56;22.70;;;17.77;;
10872;SDS011;34586;53.616;10.032;2022-10-22T04:19:21;22.53;;;16.97;;
10872;SDS011;34586;53.616;10.032;2022-10-22T04:21:47;21.97;;;18.17;;
10872;SDS011;34586;53.616;10.032;2022-10-22T04:24:13;23.03;;;17.93;;
10872;SDS011;34586;53.616;10.032;2022-10-22T04:26:38;20.37;;;16.70;;
10872;SDS011;34586;53.616;10.032;2022-10-22T04:29:05;23.33;;;16.63;;
10872;SDS011;34586;53.616;10.032;2022-10-22T04:31:31;19.87;;;15.67;;
10872;SDS011;34586;53.616;10.032;2022-10-22T04:33:57;21.70;;;17.27;;
10872;SDS011;34586;53.616;10.032;2022-10-22T04:36:24;23.97;;;17.30;;
10872;SDS011;34586;53.616;10.032;2022-10-22T04:38:52;21.23;;;16.80;;
10872;SDS011;34586;53.616;10.032;2022-10-22T04:41:23;19.07;;;15.90;;
10872;SDS011;34586;53.616;10.032;2022-10-22T04:43:50;21.47;;;15.97;;
10872;SDS011;34586;53.616;10.032;2022-10-22T04:46:17;19.37;;;15.40;;
10872;SDS011;34586;53.616;10.032;2022-10-22T04:48:43;20.27;;;15.87;;
10872;SDS011;34586;53.616;10.032;2022-10-22T04:51:10;24.03;;;16.97;;
10872;SDS011;34586;53.616;10.032;2022-10-22T04:53:38;20.23;;;16.30;;
10872;SDS011;34586;53.616;10.032;2022-10-22T04:58:43;19.53;;;15.13;;
10872;SDS011;34586;53.616;10.032;2022-10-22T05:01:10;21.00;;;15.17;;
10872;SDS011;34586;53.616;10.032;2022-10-22T05:03:37;20.70;;;15.80;;
10872;SDS011;34586;53.616;10.032;2022-10-22T05:06:03;18.63;;;15.43;;
10872;SDS011;34586;53.616;10.032;2022-10-22T05:08:29;17.97;;;14.70;;
10872;SDS011;34586;53.616;10.032;2022-10-22T05:10:54;21.20;;;15.33;;
10872;SDS011;34586;53.616;10.032;2022-10-22T05:13:20;21.27;;;15.47;;
10872;SDS011;34586;53.616;10.032;2022-10-22T05:15:45;21.57;;;15.60;;
10872;SDS011;34586;53.616;10.032;2022-10-22T05:18:11;19.33;;;15.53;;
10872;SDS011;34586;53.616;10.032;2022-10-22T05:20:40;18.37;;;15.00;;
10872;SDS011;34586;53.616;10.032;2022-10-22T05:23:06;19.80;;;16.40;;
10872;SDS011;34586;53.616;10.032;2022-10-22T05:25:35;21.37;;;16.50;;
10872;SDS011;34586;53.616;10.032;2022-10-22T05:28:02;22.47;;;16.97;;
10872;SDS011;34586;53.616;10.032;2022-10-22T05:30:27;21.73;;;16.53;;
10872;SDS011;34586;53.616;10.032;2022-10-22T05:32:53;22.53;;;16.73;;
10872;SDS011;34586;53.616;10.032;2022-10-22T05:35:18;22.90;;;16.20;;
10872;SDS011;34586;53.616;10.032;2022-10-22T05:37:44;19.93;;;16.77;;
10872;SDS011;34586;53.616;10.032;2022-10-22T05:40:10;25.67;;;17.77;;
10872;SDS011;34586;53.616;10.032;2022-10-22T05:42:35;23.87;;;18.10;;
10872;SDS011;34586;53.616;10.032;2022-10-22T05:45:01;22.13;;;17.73;;
10872;SDS011;34586;53.616;10.032;2022-10-22T05:47:28;23.27;;;17.07;;
10872;SDS011;34586;53.616;10.032;2022-10-22T05:49:54;27.60;;;18.97;;
10872;SDS011;34586;53.616;10.032;2022-10-22T05:52:21;31.33;;;19.37;;
10872;SDS011;34586;53.616;10.032;2022-10-22T05:54:47;23.43;;;18.33;;
10872;SDS011;34586;53.616;10.032;2022-10-22T05:57:12;27.90;;;20.03;;
10872;SDS011;34586;53.616;10.032;2022-10-22T05:59:38;27.97;;;20.33;;
10872;SDS011;34586;53.616;10.032;2022-10-22T06:02:03;27.53;;;20.00;;
10872;SDS011;34586;53.616;10.032;2022-10-22T06:04:29;31.40;;;20.27;;
10872;SDS011;34586;53.616;10.032;2022-10-22T06:06:54;28.10;;;19.67;;
10872;SDS011;34586;53.616;10.032;2022-10-22T06:09:25;25.63;;;18.57;;
10872;SDS011;34586;53.616;10.032;2022-10-22T06:11:53;27.80;;;19.27;;
10872;SDS011;34586;53.616;10.032;2022-10-22T06:14:19;30.60;;;20.67;;
10872;SDS011;34586;53.616;10.032;2022-10-22T06:16:45;29.90;;;21.37;;
10872;SDS011;34586;53.616;10.032;2022-10-22T06:19:12;28.07;;;20.83;;
10872;SDS011;34586;53.616;10.032;2022-10-22T06:21:39;29.47;;;20.57;;
10872;SDS011;34586;53.616;10.032;2022-10-22T06:24:05;29.10;;;21.43;;
10872;SDS011;34586;53.616;10.032;2022-10-22T06:26:31;28.33;;;21.07;;
10872;SDS011;34586;53.616;10.032;2022-10-22T06:28:57;27.23;;;20.17;;
10872;SDS011;34586;53.616;10.032;2022-10-22T06:31:24;32.93;;;20.90;;
10872;SDS011;34586;53.616;10.032;2022-10-22T06:33:50;23.07;;;19.30;;
10872;SDS011;34586;53.616;10.032;2022-10-22T06:36:17;25.73;;;19.03;;
10872;SDS011;34586;53.616;10.032;2022-10-22T06:38:45;27.10;;;18.70;;
10872;SDS011;34586;53.616;10.032;2022-10-22T06:41:14;25.10;;;19.20;;
10872;SDS011;34586;53.616;10.032;2022-10-22T06:43:41;26.73;;;19.43;;
10872;SDS011;34586;53.616;10.032;2022-10-22T06:46:09;31.63;;;20.63;;
10872;SDS011;34586;53.616;10.032;2022-10-22T06:48:35;28.03;;;19.37;;
10872;SDS011;34586;53.616;10.032;2022-10-22T06:51:11;27.83;;;20.87;;
10872;SDS011;34586;53.616;10.032;2022-10-22T06:53:37;30.50;;;21.03;;
10872;SDS011;34586;53.616;10.032;2022-10-22T06:56:14;25.37;;;20.47;;
10872;SDS011;34586;53.616;10.032;2022-10-22T06:58:41;32.57;;;21.40;;
10872;SDS011;34586;53.616;10.032;2022-10-22T07:01:11;28.63;;;20.03;;
10872;SDS011;34586;53.616;10.032;2022-10-22T07:03:38;29.13;;;21.00;;
10872;SDS011;34586;53.616;10.032;2022-10-22T07:06:05;26.70;;;19.57;;
10872;SDS011;34586;53.616;10.032;2022-10-22T07:08:37;27.03;;;18.97;;
10872;SDS011;34586;53.616;10.032;2022-10-22T07:11:04;29.33;;;20.77;;
10872;SDS011;34586;53.616;10.032;2022-10-22T07:13:32;26.53;;;20.37;;
10872;SDS011;34586;53.616;10.032;2022-10-22T07:15:58;26.77;;;19.63;;
10872;SDS011;34586;53.616;10.032;2022-10-22T07:18:23;27.00;;;18.60;;
10872;SDS011;34586;53.616;10.032;2022-10-22T07:20:49;27.67;;;20.27;;
10872;SDS011;34586;53.616;10.032;2022-10-22T07:23:14;23.87;;;19.30;;
10872;SDS011;34586;53.616;10.032;2022-10-22T07:25:40;23.60;;;18.97;;
10872;SDS011;34586;53.616;10.032;2022-10-22T07:28:06;26.37;;;19.23;;
10872;SDS011;34586;53.616;10.032;2022-10-22T07:30:32;31.40;;;20.03;;
10872;SDS011;34586;53.616;10.032;2022-10-22T07:32:58;24.27;;;19.07;;
10872;SDS011;34586;53.616;10.032;2022-10-22T07:35:24;27.67;;;19.60;;
10872;SDS011;34586;53.616;10.032;2022-10-22T07:37:49;29.87;;;20.23;;
10872;SDS011;34586;53.616;10.032;2022-10-22T07:40:15;27.07;;;19.83;;
10872;SDS011;34586;53.616;10.032;2022-10-22T07:42:41;27.70;;;20.33;;
10872;SDS011;34586;53.616;10.032;2022-10-22T07:45:06;25.03;;;18.23;;
10872;SDS011;34586;53.616;10.032;2022-10-22T07:47:32;28.07;;;20.73;;
10872;SDS011;34586;53.616;10.032;2022-10-22T07:49:58;25.63;;;18.17;;
10872;SDS011;34586;53.616;10.032;2022-10-22T07:52:24;24.50;;;20.27;;
10872;SDS011;34586;53.616;10.032;2022-10-22T07:54:49;26.63;;;19.30;;
10872;SDS011;34586;53.616;10.032;2022-10-22T07:57:15;26.70;;;20.33;;
10872;SDS011;34586;53.616;10.032;2022-10-22T07:59:40;30.20;;;20.73;;
10872;SDS011;34586;53.616;10.032;2022-10-22T08:02:06;22.80;;;18.57;;
10872;SDS011;34586;53.616;10.032;2022-10-22T08:04:31;29.73;;;21.27;;
10872;SDS011;34586;53.616;10.032;2022-10-22T08:06:57;28.60;;;21.90;;
10872;SDS011;34586;53.616;10.032;2022-10-22T08:09:22;28.73;;;21.70;;
10872;SDS011;34586;53.616;10.032;2022-10-22T08:11:48;30.77;;;21.37;;
10872;SDS011;34586;53.616;10.032;2022-10-22T08:14:14;28.57;;;21.80;;
10872;SDS011;34586;53.616;10.032;2022-10-22T08:16:40;27.10;;;22.17;;
10872;SDS011;34586;53.616;10.032;2022-10-22T08:19:05;31.03;;;22.60;;
10872;SDS011;34586;53.616;10.032;2022-10-22T08:21:31;26.50;;;21.53;;
10872;SDS011;34586;53.616;10.032;2022-10-22T08:23:56;29.77;;;21.90;;
10872;SDS011;34586;53.616;10.032;2022-10-22T08:26:22;26.93;;;21.47;;
10872;SDS011;34586;53.616;10.032;2022-10-22T08:28:47;31.23;;;23.03;;
10872;SDS011;34586;53.616;10.032;2022-10-22T08:31:13;26.70;;;22.17;;
10872;SDS011;34586;53.616;10.032;2022-10-22T08:33:38;31.13;;;22.83;;
10872;SDS011;34586;53.616;10.032;2022-10-22T08:36:05;30.13;;;21.90;;
10872;SDS011;34586;53.616;10.032;2022-10-22T08:38:31;29.63;;;21.17;;
10872;SDS011;34586;53.616;10.032;2022-10-22T08:41:05;30.57;;;21.83;;
10872;SDS011;34586;53.616;10.032;2022-10-22T08:46:24;27.23;;;21.47;;
10872;SDS011;34586;53.616;10.032;2022-10-22T08:49:19;22.87;;;19.03;;
10872;SDS011;34586;53.616;10.032;2022-10-22T08:51:53;24.87;;;19.90;;
10872;SDS011;34586;53.616;10.032;2022-10-22T09:00:45;21.93;;;18.20;;
10872;SDS011;34586;53.616;10.032;2022-10-22T09:06:22;25.07;;;17.80;;
10872;SDS011;34586;53.616;10.032;2022-10-22T09:08:49;19.37;;;16.10;;
10872;SDS011;34586;53.616;10.032;2022-10-22T09:14:02;21.53;;;13.90;;
10872;SDS011;34586;53.616;10.032;2022-10-22T09:24:39;15.67;;;10.80;;
10872;SDS011;34586;53.616;10.032;2022-10-22T09:27:13;16.40;;;10.90;;
10872;SDS011;34586;53.616;10.032;2022-10-22T09:29:44;15.17;;;10.17;;
10872;SDS011;34586;53.616;10.032;2022-10-22T09:32:11;13.03;;;9.23;;
10872;SDS011;34586;53.616;10.032;2022-10-22T09:34:37;12.43;;;8.97;;
10872;SDS011;34586;53.616;10.032;2022-10-22T09:37:04;12.87;;;7.60;;
10872;SDS011;34586;53.616;10.032;2022-10-22T09:39:32;8.77;;;6.47;;
10872;SDS011;34586;53.616;10.032;2022-10-22T09:42:01;10.80;;;6.67;;
10872;SDS011;34586;53.616;10.032;2022-10-22T09:44:27;11.47;;;6.87;;
10872;SDS011;34586;53.616;10.032;2022-10-22T09:46:56;11.43;;;6.23;;
10872;SDS011;34586;53.616;10.032;2022-10-22T09:49:22;10.90;;;6.13;;
10872;SDS011;34586;53.616;10.032;2022-10-22T09:51:49;11.37;;;5.73;;
10872;SDS011;34586;53.616;10.032;2022-10-22T09:56:52;6.90;;;5.00;;
10872;SDS011;34586;53.616;10.032;2022-10-22T09:59:23;8.80;;;5.20;;
10872;SDS011;34586;53.616;10.032;2022-10-22T10:04:52;9.03;;;4.70;;
10872;SDS011;34586;53.616;10.032;2022-10-22T10:09:47;8.80;;;4.37;;
10872;SDS011;34586;53.616;10.032;2022-10-22T10:14:59;8.77;;;4.00;;
10872;SDS011;34586;53.616;10.032;2022-10-22T10:18:05;7.87;;;3.63;;
10872;SDS011;34586;53.616;10.032;2022-10-22T10:20:53;12.70;;;4.27;;
10872;SDS011;34586;53.616;10.032;2022-10-22T10:23:37;5.00;;;3.83;;
10872;SDS011;34586;53.616;10.032;2022-10-22T10:37:18;7.50;;;3.93;;
10872;SDS011;34586;53.616;10.032;2022-10-22T10:42:40;9.50;;;4.40;;
10872;SDS011;34586;53.616;10.032;2022-10-22T10:45:17;10.87;;;4.00;;
10872;SDS011;34586;53.616;10.032;2022-10-22T10:51:02;7.83;;;3.20;;
10872;SDS011;34586;53.616;10.032;2022-10-22T10:54:04;6.37;;;3.20;;
10872;SDS011;34586;53.616;10.032;2022-10-22T11:02:51;7.40;;;2.73;;
10872;SDS011;34586;53.616;10.032;2022-10-22T11:06:07;7.93;;;2.37;;
10872;SDS011;34586;53.616;10.032;2022-10-22T11:08:37;6.87;;;2.73;;
10872;SDS011;34586;53.616;10.032;2022-10-22T11:11:11;6.87;;;2.43;;
10872;SDS011;34586;53.616;10.032;2022-10-22T11:13:44;6.23;;;2.30;;
10872;SDS011;34586;53.616;10.032;2022-10-22T11:19:29;4.17;;;1.80;;
10872;SDS011;34586;53.616;10.032;2022-10-22T11:22:14;4.80;;;1.97;;
10872;SDS011;34586;53.616;10.032;2022-10-22T11:24:57;4.67;;;1.70;;
10872;SDS011;34586;53.616;10.032;2022-10-22T11:27:39;6.03;;;1.77;;
10872;SDS011;34586;53.616;10.032;2022-10-22T11:30:11;7.13;;;1.80;;
10872;SDS011;34586;53.616;10.032;2022-10-22T11:32:40;5.13;;;1.40;;
10872;SDS011;34586;53.616;10.032;2022-10-22T11:35:08;6.43;;;2.00;;
10872;SDS011;34586;53.616;10.032;2022-10-22T11:37:38;5.07;;;1.77;;
10872;SDS011;34586;53.616;10.032;2022-10-22T11:40:07;4.43;;;1.67;;
10872;SDS011;34586;53.616;10.032;2022-10-22T11:42:44;8.27;;;1.83;;
10872;SDS011;34586;53.616;10.032;2022-10-22T11:48:21;6.07;;;1.73;;
10872;SDS011;34586;53.616;10.032;2022-10-22T11:56:38;5.47;;;1.80;;
10872;SDS011;34586;53.616;10.032;2022-10-22T12:08:29;5.27;;;1.60;;
10872;SDS011;34586;53.616;10.032;2022-10-22T12:19:00;3.07;;;1.27;;
10872;SDS011;34586;53.616;10.032;2022-10-22T12:21:31;5.37;;;1.57;;
10872;SDS011;34586;53.616;10.032;2022-10-22T12:23:57;4.40;;;1.50;;
10872;SDS011;34586;53.616;10.032;2022-10-22T12:26:28;8.17;;;1.63;;
10872;SDS011;34586;53.616;10.032;2022-10-22T12:28:56;3.33;;;1.50;;
10872;SDS011;34586;53.616;10.032;2022-10-22T12:31:23;5.23;;;2.33;;
10872;SDS011;34586;53.616;10.032;2022-10-22T12:33:54;6.63;;;1.70;;
10872;SDS011;34586;53.616;10.032;2022-10-22T12:36:21;7.30;;;2.10;;
10872;SDS011;34586;53.616;10.032;2022-10-22T12:38:46;5.70;;;2.10;;
10872;SDS011;34586;53.616;10.032;2022-10-22T12:41:12;3.10;;;2.07;;
10872;SDS011;34586;53.616;10.032;2022-10-22T12:43:38;5.47;;;2.43;;
10872;SDS011;34586;53.616;10.032;2022-10-22T12:46:03;4.83;;;2.30;;
10872;SDS011;34586;53.616;10.032;2022-10-22T12:48:39;4.93;;;1.80;;
10872;SDS011;34586;53.616;10.032;2022-10-22T12:51:07;4.97;;;2.40;;
10872;SDS011;34586;53.616;10.032;2022-10-22T12:53:41;7.40;;;2.70;;
10872;SDS011;34586;53.616;10.032;2022-10-22T12:56:14;5.30;;;2.00;;
10872;SDS011;34586;53.616;10.032;2022-10-22T12:58:45;6.20;;;2.50;;
10872;SDS011;34586;53.616;10.032;2022-10-22T13:01:23;4.67;;;1.97;;
10872;SDS011;34586;53.616;10.032;2022-10-22T13:04:02;3.90;;;2.10;;
10872;SDS011;34586;53.616;10.032;2022-10-22T13:06:32;7.20;;;2.70;;
10872;SDS011;34586;53.616;10.032;2022-10-22T13:11:32;3.73;;;1.93;;
10872;SDS011;34586;53.616;10.032;2022-10-22T13:14:02;6.97;;;2.30;;
10872;SDS011;34586;53.616;10.032;2022-10-22T13:16:29;6.83;;;2.70;;
10872;SDS011;34586;53.616;10.032;2022-10-22T13:18:56;5.37;;;2.30;;
10872;SDS011;34586;53.616;10.032;2022-10-22T13:21:23;5.17;;;1.97;;
10872;SDS011;34586;53.616;10.032;2022-10-22T13:23:57;5.03;;;2.10;;
10872;SDS011;34586;53.616;10.032;2022-10-22T13:26:42;4.53;;;2.03;;
10872;SDS011;34586;53.616;10.032;2022-10-22T13:29:14;4.40;;;2.03;;
10872;SDS011;34586;53.616;10.032;2022-10-22T13:31:44;10.50;;;2.10;;
10872;SDS011;34586;53.616;10.032;2022-10-22T13:34:11;7.23;;;2.20;;
10872;SDS011;34586;53.616;10.032;2022-10-22T13:36:40;6.87;;;1.83;;
10872;SDS011;34586;53.616;10.032;2022-10-22T13:39:09;5.97;;;2.00;;
10872;SDS011;34586;53.616;10.032;2022-10-22T13:41:41;6.90;;;1.93;;
10872;SDS011;34586;53.616;10.032;2022-10-22T13:44:06;6.60;;;1.67;;
10872;SDS011;34586;53.616;10.032;2022-10-22T13:46:32;5.47;;;1.80;;
10872;SDS011;34586;53.616;10.032;2022-10-22T13:49:01;8.07;;;2.23;;
10872;SDS011;34586;53.616;10.032;2022-10-22T13:51:31;4.63;;;1.60;;
10872;SDS011;34586;53.616;10.032;2022-10-22T13:53:59;5.83;;;1.63;;
10872;SDS011;34586;53.616;10.032;2022-10-22T13:56:25;8.17;;;2.00;;
10872;SDS011;34586;53.616;10.032;2022-10-22T13:58:50;6.70;;;1.70;;
10872;SDS011;34586;53.616;10.032;2022-10-22T14:01:22;5.73;;;1.60;;
10872;SDS011;34586;53.616;10.032;2022-10-22T14:03:53;8.93;;;1.87;;
10872;SDS011;34586;53.616;10.032;2022-10-22T14:06:22;5.70;;;1.70;;
10872;SDS011;34586;53.616;10.032;2022-10-22T14:08:53;4.67;;;1.63;;
10872;SDS011;34586;53.616;10.032;2022-10-22T14:11:22;5.93;;;2.00;;
10872;SDS011;34586;53.616;10.032;2022-10-22T14:13:48;4.40;;;1.70;;
10872;SDS011;34586;53.616;10.032;2022-10-22T14:16:21;5.37;;;1.90;;
10872;SDS011;34586;53.616;10.032;2022-10-22T14:18:48;4.03;;;1.70;;
10872;SDS011;34586;53.616;10.032;2022-10-22T14:21:15;4.70;;;1.73;;
10872;SDS011;34586;53.616;10.032;2022-10-22T14:23:42;9.77;;;1.90;;
10872;SDS011;34586;53.616;10.032;2022-10-22T14:26:42;10.27;;;2.23;;
10872;SDS011;34586;53.616;10.032;2022-10-22T14:29:01;4.73;;;1.77;;
10872;SDS011;34586;53.616;10.032;2022-10-22T14:31:27;5.97;;;1.60;;
10872;SDS011;34586;53.616;10.032;2022-10-22T14:33:53;4.83;;;1.90;;
10872;SDS011;34586;53.616;10.032;2022-10-22T14:36:18;8.17;;;2.00;;
10872;SDS011;34586;53.616;10.032;2022-10-22T14:38:45;5.53;;;1.83;;
10872;SDS011;34586;53.616;10.032;2022-10-22T14:41:21;5.50;;;1.90;;
10872;SDS011;34586;53.616;10.032;2022-10-22T14:43:48;3.00;;;1.50;;
10872;SDS011;34586;53.616;10.032;2022-10-22T14:46:15;6.20;;;1.77;;
10872;SDS011;34586;53.616;10.032;2022-10-22T14:48:41;4.53;;;1.60;;
10872;SDS011;34586;53.616;10.032;2022-10-22T14:51:10;5.10;;;1.90;;
10872;SDS011;34586;53.616;10.032;2022-10-22T14:53:41;6.10;;;1.80;;
10872;SDS011;34586;53.616;10.032;2022-10-22T14:56:10;6.40;;;1.60;;
10872;SDS011;34586;53.616;10.032;2022-10-22T14:58:40;9.07;;;2.33;;
10872;SDS011;34586;53.616;10.032;2022-10-22T15:01:06;7.17;;;1.50;;
10872;SDS011;34586;53.616;10.032;2022-10-22T15:03:32;5.57;;;1.53;;
10872;SDS011;34586;53.616;10.032;2022-10-22T15:05:58;5.80;;;1.97;;
10872;SDS011;34586;53.616;10.032;2022-10-22T15:08:24;5.37;;;1.93;;
10872;SDS011;34586;53.616;10.032;2022-10-22T15:11:01;6.30;;;1.80;;
10872;SDS011;34586;53.616;10.032;2022-10-22T15:13:32;6.70;;;1.67;;
10872;SDS011;34586;53.616;10.032;2022-10-22T15:15:58;4.40;;;1.50;;
10872;SDS011;34586;53.616;10.032;2022-10-22T15:18:24;5.50;;;1.87;;
10872;SDS011;34586;53.616;10.032;2022-10-22T15:21:33;4.30;;;1.77;;
10872;SDS011;34586;53.616;10.032;2022-10-22T15:23:41;6.37;;;2.00;;
10872;SDS011;34586;53.616;10.032;2022-10-22T15:26:07;6.10;;;1.80;;
10872;SDS011;34586;53.616;10.032;2022-10-22T15:28:34;8.93;;;1.80;;
10872;SDS011;34586;53.616;10.032;2022-10-22T15:31:01;4.90;;;1.60;;
10872;SDS011;34586;53.616;10.032;2022-10-22T15:33:27;6.77;;;1.90;;
10872;SDS011;34586;53.616;10.032;2022-10-22T15:35:53;5.97;;;1.73;;
10872;SDS011;34586;53.616;10.032;2022-10-22T15:38:20;8.47;;;2.07;;
10872;SDS011;34586;53.616;10.032;2022-10-22T15:40:46;7.27;;;1.80;;
10872;SDS011;34586;53.616;10.032;2022-10-22T15:43:12;6.97;;;2.03;;
10872;SDS011;34586;53.616;10.032;2022-10-22T15:45:38;10.13;;;2.53;;
10872;SDS011;34586;53.616;10.032;2022-10-22T15:48:04;4.67;;;1.97;;
10872;SDS011;34586;53.616;10.032;2022-10-22T15:50:30;6.97;;;1.80;;
10872;SDS011;34586;53.616;10.032;2022-10-22T15:52:56;7.20;;;1.90;;
10872;SDS011;34586;53.616;10.032;2022-10-22T15:55:21;6.23;;;1.93;;
10872;SDS011;34586;53.616;10.032;2022-10-22T15:57:47;7.90;;;2.00;;
10872;SDS011;34586;53.616;10.032;2022-10-22T16:00:18;5.20;;;2.00;;
10872;SDS011;34586;53.616;10.032;2022-10-22T16:02:45;5.90;;;1.90;;
10872;SDS011;34586;53.616;10.032;2022-10-22T16:05:10;4.37;;;1.80;;
10872;SDS011;34586;53.616;10.032;2022-10-22T16:07:36;4.13;;;1.80;;
10872;SDS011;34586;53.616;10.032;2022-10-22T16:10:02;4.30;;;1.90;;
10872;SDS011;34586;53.616;10.032;2022-10-22T16:12:28;4.27;;;1.87;;
10872;SDS011;34586;53.616;10.032;2022-10-22T16:14:54;6.00;;;2.30;;
10872;SDS011;34586;53.616;10.032;2022-10-22T16:17:19;3.70;;;1.87;;
10872;SDS011;34586;53.616;10.032;2022-10-22T16:19:46;3.23;;;1.60;;
10872;SDS011;34586;53.616;10.032;2022-10-22T16:22:12;4.77;;;2.03;;
10872;SDS011;34586;53.616;10.032;2022-10-22T16:24:39;5.43;;;2.33;;